sensor_id;sensor_type;location;lat;lon;timestamp;P1;durP1;ratioP1;P2;durP2;ratioP2
36501;SDS011;25393;46.108;3.390;2022-11-20T00:01:32;11.63;;;2.92;;
36501;SDS011;25393;46.108;3.390;2022-11-20T00:03:59;8.25;;;2.53;;
36501;SDS011;25393;46.108;3.390;2022-11-20T00:06:33;9.15;;;3.20;;
36501;SDS011;25393;46.108;3.390;2022-11-20T00:09:00;6.13;;;2.80;;
36501;SDS011;25393;46.108;3.390;2022-11-20T00:11:28;6.05;;;2.17;;
36501;SDS011;25393;46.108;3.390;2022-11-20T00:13:56;5.95;;;2.65;;
36501;SDS011;25393;46.108;3.390;2022-11-20T00:16:26;9.15;;;2.53;;
36501;SDS011;25393;46.108;3.390;2022-11-20T00:18:54;13.57;;;2.72;;
36501;SDS011;25393;46.108;3.390;2022-11-20T00:21:23;5.30;;;2.58;;
36501;SDS011;25393;46.108;3.390;2022-11-20T00:23:52;6.32;;;2.65;;
36501;SDS011;25393;46.108;3.390;2022-11-20T00:26:20;11.68;;;2.60;;
36501;SDS011;25393;46.108;3.390;2022-11-20T00:28:49;11.13;;;2.78;;
36501;SDS011;25393;46.108;3.390;2022-11-20T00:31:21;8.07;;;2.90;;
36501;SDS011;25393;46.108;3.390;2022-11-20T00:33:47;7.63;;;3.47;;
36501;SDS011;25393;46.108;3.390;2022-11-20T00:36:15;10.05;;;3.05;;
36501;SDS011;25393;46.108;3.390;2022-11-20T00:38:46;6.63;;;3.05;;
36501;SDS011;25393;46.108;3.390;2022-11-20T00:41:14;9.57;;;2.97;;
36501;SDS011;25393;46.108;3.390;2022-11-20T00:43:42;11.70;;;2.80;;
36501;SDS011;25393;46.108;3.390;2022-11-20T00:46:10;14.60;;;3.00;;
36501;SDS011;25393;46.108;3.390;2022-11-20T00:48:39;7.50;;;3.00;;
36501;SDS011;25393;46.108;3.390;2022-11-20T00:51:06;11.25;;;3.47;;
36501;SDS011;25393;46.108;3.390;2022-11-20T00:53:32;8.43;;;3.72;;
36501;SDS011;25393;46.108;3.390;2022-11-20T00:56:00;7.90;;;2.70;;
36501;SDS011;25393;46.108;3.390;2022-11-20T00:58:32;10.13;;;3.47;;
36501;SDS011;25393;46.108;3.390;2022-11-20T01:01:03;10.57;;;3.15;;
36501;SDS011;25393;46.108;3.390;2022-11-20T01:03:35;6.72;;;3.15;;
36501;SDS011;25393;46.108;3.390;2022-11-20T01:06:05;8.35;;;2.65;;
36501;SDS011;25393;46.108;3.390;2022-11-20T01:08:33;7.15;;;2.60;;
36501;SDS011;25393;46.108;3.390;2022-11-20T01:11:02;6.72;;;3.17;;
36501;SDS011;25393;46.108;3.390;2022-11-20T01:13:31;13.35;;;2.80;;
36501;SDS011;25393;46.108;3.390;2022-11-20T01:16:05;11.35;;;3.33;;
36501;SDS011;25393;46.108;3.390;2022-11-20T01:18:37;11.13;;;2.58;;
36501;SDS011;25393;46.108;3.390;2022-11-20T01:21:12;10.38;;;3.80;;
36501;SDS011;25393;46.108;3.390;2022-11-20T01:23:50;6.97;;;2.92;;
36501;SDS011;25393;46.108;3.390;2022-11-20T01:26:18;6.70;;;2.83;;
36501;SDS011;25393;46.108;3.390;2022-11-20T01:28:46;4.97;;;2.38;;
36501;SDS011;25393;46.108;3.390;2022-11-20T01:31:15;11.68;;;2.95;;
36501;SDS011;25393;46.108;3.390;2022-11-20T01:33:45;11.05;;;3.50;;
36501;SDS011;25393;46.108;3.390;2022-11-20T01:36:13;6.40;;;3.28;;
36501;SDS011;25393;46.108;3.390;2022-11-20T01:38:41;7.30;;;3.67;;
36501;SDS011;25393;46.108;3.390;2022-11-20T01:41:09;7.45;;;3.28;;
36501;SDS011;25393;46.108;3.390;2022-11-20T01:43:57;4.55;;;2.72;;
36501;SDS011;25393;46.108;3.390;2022-11-20T01:46:24;8.05;;;2.60;;
36501;SDS011;25393;46.108;3.390;2022-11-20T01:48:56;9.07;;;3.13;;
36501;SDS011;25393;46.108;3.390;2022-11-20T01:54:06;8.80;;;2.95;;
36501;SDS011;25393;46.108;3.390;2022-11-20T01:56:40;8.18;;;3.28;;
36501;SDS011;25393;46.108;3.390;2022-11-20T01:59:12;5.05;;;2.72;;
36501;SDS011;25393;46.108;3.390;2022-11-20T02:01:41;10.93;;;2.88;;
36501;SDS011;25393;46.108;3.390;2022-11-20T02:04:08;10.45;;;3.30;;
36501;SDS011;25393;46.108;3.390;2022-11-20T02:06:39;6.90;;;2.60;;
36501;SDS011;25393;46.108;3.390;2022-11-20T02:09:10;13.75;;;3.40;;
36501;SDS011;25393;46.108;3.390;2022-11-20T02:11:37;5.83;;;2.60;;
36501;SDS011;25393;46.108;3.390;2022-11-20T02:14:05;9.70;;;3.10;;
36501;SDS011;25393;46.108;3.390;2022-11-20T02:16:43;6.90;;;2.33;;
36501;SDS011;25393;46.108;3.390;2022-11-20T02:19:16;6.43;;;2.73;;
36501;SDS011;25393;46.108;3.390;2022-11-20T02:22:05;7.37;;;2.70;;
36501;SDS011;25393;46.108;3.390;2022-11-20T02:24:42;4.60;;;2.77;;
36501;SDS011;25393;46.108;3.390;2022-11-20T02:27:12;3.55;;;2.25;;
36501;SDS011;25393;46.108;3.390;2022-11-20T02:29:57;6.20;;;2.50;;
36501;SDS011;25393;46.108;3.390;2022-11-20T02:32:32;6.03;;;3.27;;
36501;SDS011;25393;46.108;3.390;2022-11-20T02:37:47;5.30;;;3.37;;
36501;SDS011;25393;46.108;3.390;2022-11-20T02:40:16;9.70;;;2.50;;
36501;SDS011;25393;46.108;3.390;2022-11-20T02:42:43;5.37;;;2.40;;
36501;SDS011;25393;46.108;3.390;2022-11-20T02:45:09;4.93;;;2.47;;
36501;SDS011;25393;46.108;3.390;2022-11-20T02:47:39;6.30;;;2.83;;
36501;SDS011;25393;46.108;3.390;2022-11-20T02:50:08;6.27;;;2.20;;
36501;SDS011;25393;46.108;3.390;2022-11-20T02:52:37;5.30;;;2.33;;
36501;SDS011;25393;46.108;3.390;2022-11-20T02:55:04;6.97;;;2.30;;
36501;SDS011;25393;46.108;3.390;2022-11-20T02:57:31;12.13;;;3.17;;
36501;SDS011;25393;46.108;3.390;2022-11-20T02:59:57;6.47;;;2.40;;
36501;SDS011;25393;46.108;3.390;2022-11-20T03:02:24;6.40;;;1.83;;
36501;SDS011;25393;46.108;3.390;2022-11-20T03:04:50;9.67;;;2.87;;
36501;SDS011;25393;46.108;3.390;2022-11-20T03:07:17;6.70;;;2.83;;
36501;SDS011;25393;46.108;3.390;2022-11-20T03:09:43;3.97;;;2.60;;
36501;SDS011;25393;46.108;3.390;2022-11-20T03:12:10;6.87;;;2.63;;
36501;SDS011;25393;46.108;3.390;2022-11-20T03:14:39;7.27;;;3.37;;
36501;SDS011;25393;46.108;3.390;2022-11-20T03:17:06;4.50;;;2.43;;
36501;SDS011;25393;46.108;3.390;2022-11-20T03:19:33;5.03;;;2.47;;
36501;SDS011;25393;46.108;3.390;2022-11-20T03:22:00;8.90;;;3.23;;
36501;SDS011;25393;46.108;3.390;2022-11-20T03:24:27;6.07;;;2.63;;
36501;SDS011;25393;46.108;3.390;2022-11-20T03:26:53;6.70;;;2.80;;
36501;SDS011;25393;46.108;3.390;2022-11-20T03:29:20;5.20;;;3.00;;
36501;SDS011;25393;46.108;3.390;2022-11-20T03:31:47;5.57;;;2.77;;
36501;SDS011;25393;46.108;3.390;2022-11-20T03:34:13;7.97;;;2.70;;
36501;SDS011;25393;46.108;3.390;2022-11-20T03:36:40;9.17;;;2.83;;
36501;SDS011;25393;46.108;3.390;2022-11-20T03:39:09;8.27;;;2.23;;
36501;SDS011;25393;46.108;3.390;2022-11-20T03:41:37;8.10;;;3.00;;
36501;SDS011;25393;46.108;3.390;2022-11-20T03:44:08;8.50;;;2.83;;
36501;SDS011;25393;46.108;3.390;2022-11-20T03:46:36;13.10;;;3.90;;
36501;SDS011;25393;46.108;3.390;2022-11-20T03:49:03;10.10;;;2.97;;
36501;SDS011;25393;46.108;3.390;2022-11-20T03:51:31;6.10;;;2.60;;
36501;SDS011;25393;46.108;3.390;2022-11-20T03:54:02;9.73;;;2.73;;
36501;SDS011;25393;46.108;3.390;2022-11-20T03:56:32;4.83;;;2.77;;
36501;SDS011;25393;46.108;3.390;2022-11-20T03:59:01;9.07;;;3.70;;
36501;SDS011;25393;46.108;3.390;2022-11-20T04:01:32;9.23;;;3.50;;
36501;SDS011;25393;46.108;3.390;2022-11-20T04:04:01;10.03;;;2.77;;
36501;SDS011;25393;46.108;3.390;2022-11-20T04:06:35;6.03;;;2.93;;
36501;SDS011;25393;46.108;3.390;2022-11-20T04:09:03;11.77;;;2.90;;
36501;SDS011;25393;46.108;3.390;2022-11-20T04:11:32;16.37;;;3.30;;
36501;SDS011;25393;46.108;3.390;2022-11-20T04:14:01;8.33;;;3.03;;
36501;SDS011;25393;46.108;3.390;2022-11-20T04:16:30;7.77;;;2.87;;
36501;SDS011;25393;46.108;3.390;2022-11-20T04:19:00;8.53;;;2.93;;
36501;SDS011;25393;46.108;3.390;2022-11-20T04:21:28;12.37;;;3.13;;
36501;SDS011;25393;46.108;3.390;2022-11-20T04:23:55;7.70;;;2.60;;
36501;SDS011;25393;46.108;3.390;2022-11-20T04:26:22;10.90;;;2.73;;
36501;SDS011;25393;46.108;3.390;2022-11-20T04:28:51;8.33;;;3.03;;
36501;SDS011;25393;46.108;3.390;2022-11-20T04:31:22;9.83;;;2.50;;
36501;SDS011;25393;46.108;3.390;2022-11-20T04:33:53;11.67;;;2.97;;
36501;SDS011;25393;46.108;3.390;2022-11-20T04:36:21;8.73;;;2.30;;
36501;SDS011;25393;46.108;3.390;2022-11-20T04:38:53;3.93;;;2.60;;
36501;SDS011;25393;46.108;3.390;2022-11-20T04:41:23;6.27;;;2.37;;
36501;SDS011;25393;46.108;3.390;2022-11-20T04:43:54;15.20;;;2.73;;
36501;SDS011;25393;46.108;3.390;2022-11-20T04:46:31;10.13;;;2.87;;
36501;SDS011;25393;46.108;3.390;2022-11-20T04:49:08;5.80;;;2.50;;
36501;SDS011;25393;46.108;3.390;2022-11-20T04:51:35;5.67;;;2.53;;
36501;SDS011;25393;46.108;3.390;2022-11-20T04:54:01;7.20;;;2.07;;
36501;SDS011;25393;46.108;3.390;2022-11-20T04:56:28;7.30;;;1.93;;
36501;SDS011;25393;46.108;3.390;2022-11-20T04:58:55;4.33;;;1.97;;
36501;SDS011;25393;46.108;3.390;2022-11-20T05:01:23;4.93;;;2.30;;
36501;SDS011;25393;46.108;3.390;2022-11-20T05:03:50;14.33;;;2.47;;
36501;SDS011;25393;46.108;3.390;2022-11-20T05:06:18;11.90;;;2.80;;
36501;SDS011;25393;46.108;3.390;2022-11-20T05:08:46;4.27;;;2.20;;
36501;SDS011;25393;46.108;3.390;2022-11-20T05:11:14;10.37;;;2.33;;
36501;SDS011;25393;46.108;3.390;2022-11-20T05:13:49;11.27;;;1.93;;
36501;SDS011;25393;46.108;3.390;2022-11-20T05:16:19;9.50;;;2.47;;
36501;SDS011;25393;46.108;3.390;2022-11-20T05:18:50;6.27;;;2.00;;
36501;SDS011;25393;46.108;3.390;2022-11-20T05:21:17;5.30;;;1.70;;
36501;SDS011;25393;46.108;3.390;2022-11-20T05:23:47;3.57;;;2.30;;
36501;SDS011;25393;46.108;3.390;2022-11-20T05:26:20;6.67;;;2.90;;
36501;SDS011;25393;46.108;3.390;2022-11-20T05:28:48;5.53;;;1.77;;
36501;SDS011;25393;46.108;3.390;2022-11-20T05:31:17;4.67;;;1.73;;
36501;SDS011;25393;46.108;3.390;2022-11-20T05:33:52;9.03;;;1.83;;
36501;SDS011;25393;46.108;3.390;2022-11-20T05:36:20;9.57;;;2.67;;
36501;SDS011;25393;46.108;3.390;2022-11-20T05:38:47;5.83;;;2.20;;
36501;SDS011;25393;46.108;3.390;2022-11-20T05:41:18;5.07;;;1.67;;
36501;SDS011;25393;46.108;3.390;2022-11-20T05:43:46;6.47;;;1.63;;
36501;SDS011;25393;46.108;3.390;2022-11-20T05:46:18;7.33;;;2.43;;
36501;SDS011;25393;46.108;3.390;2022-11-20T05:48:53;4.83;;;1.40;;
36501;SDS011;25393;46.108;3.390;2022-11-20T05:51:21;5.33;;;1.63;;
36501;SDS011;25393;46.108;3.390;2022-11-20T05:53:49;5.00;;;1.90;;
36501;SDS011;25393;46.108;3.390;2022-11-20T05:56:19;2.70;;;1.70;;
36501;SDS011;25393;46.108;3.390;2022-11-20T05:58:47;4.10;;;1.40;;
36501;SDS011;25393;46.108;3.390;2022-11-20T06:01:26;4.30;;;2.00;;
36501;SDS011;25393;46.108;3.390;2022-11-20T06:03:52;5.43;;;3.03;;
36501;SDS011;25393;46.108;3.390;2022-11-20T06:06:21;4.80;;;1.53;;
36501;SDS011;25393;46.108;3.390;2022-11-20T06:08:48;4.63;;;1.50;;
36501;SDS011;25393;46.108;3.390;2022-11-20T06:11:15;4.10;;;1.67;;
36501;SDS011;25393;46.108;3.390;2022-11-20T06:13:43;4.60;;;1.53;;
36501;SDS011;25393;46.108;3.390;2022-11-20T06:16:10;5.53;;;1.80;;
36501;SDS011;25393;46.108;3.390;2022-11-20T06:18:38;7.53;;;1.87;;
36501;SDS011;25393;46.108;3.390;2022-11-20T06:21:06;11.87;;;1.90;;
36501;SDS011;25393;46.108;3.390;2022-11-20T06:23:40;4.87;;;1.60;;
36501;SDS011;25393;46.108;3.390;2022-11-20T06:26:08;6.63;;;1.90;;
36501;SDS011;25393;46.108;3.390;2022-11-20T06:28:39;2.50;;;1.63;;
36501;SDS011;25393;46.108;3.390;2022-11-20T06:31:06;2.47;;;1.50;;
36501;SDS011;25393;46.108;3.390;2022-11-20T06:33:33;2.10;;;1.40;;
36501;SDS011;25393;46.108;3.390;2022-11-20T06:36:00;8.93;;;1.43;;
36501;SDS011;25393;46.108;3.390;2022-11-20T06:38:35;5.23;;;2.83;;
36501;SDS011;25393;46.108;3.390;2022-11-20T06:41:03;5.77;;;1.40;;
36501;SDS011;25393;46.108;3.390;2022-11-20T06:43:30;8.90;;;1.40;;
36501;SDS011;25393;46.108;3.390;2022-11-20T06:45:59;8.20;;;2.43;;
36501;SDS011;25393;46.108;3.390;2022-11-20T06:48:26;4.57;;;1.80;;
36501;SDS011;25393;46.108;3.390;2022-11-20T06:50:57;10.83;;;1.50;;
36501;SDS011;25393;46.108;3.390;2022-11-20T06:53:24;6.27;;;1.50;;
36501;SDS011;25393;46.108;3.390;2022-11-20T06:55:51;2.90;;;1.10;;
36501;SDS011;25393;46.108;3.390;2022-11-20T06:58:21;5.97;;;1.30;;
36501;SDS011;25393;46.108;3.390;2022-11-20T07:00:47;4.13;;;1.33;;
36501;SDS011;25393;46.108;3.390;2022-11-20T07:03:14;6.97;;;1.47;;
36501;SDS011;25393;46.108;3.390;2022-11-20T07:05:41;12.10;;;1.43;;
36501;SDS011;25393;46.108;3.390;2022-11-20T07:08:07;4.43;;;1.57;;
36501;SDS011;25393;46.108;3.390;2022-11-20T07:10:35;4.60;;;1.10;;
36501;SDS011;25393;46.108;3.390;2022-11-20T07:13:02;5.40;;;1.30;;
36501;SDS011;25393;46.108;3.390;2022-11-20T07:15:29;7.63;;;1.50;;
36501;SDS011;25393;46.108;3.390;2022-11-20T07:17:58;2.17;;;1.40;;
36501;SDS011;25393;46.108;3.390;2022-11-20T07:20:25;3.40;;;1.50;;
36501;SDS011;25393;46.108;3.390;2022-11-20T07:22:55;3.90;;;1.40;;
36501;SDS011;25393;46.108;3.390;2022-11-20T07:25:23;4.10;;;1.60;;
36501;SDS011;25393;46.108;3.390;2022-11-20T07:27:57;3.43;;;1.53;;
36501;SDS011;25393;46.108;3.390;2022-11-20T07:30:28;5.30;;;1.40;;
36501;SDS011;25393;46.108;3.390;2022-11-20T07:32:57;5.70;;;1.87;;
36501;SDS011;25393;46.108;3.390;2022-11-20T07:35:27;3.60;;;1.50;;
36501;SDS011;25393;46.108;3.390;2022-11-20T07:37:57;4.00;;;2.40;;
36501;SDS011;25393;46.108;3.390;2022-11-20T07:40:26;3.83;;;1.40;;
36501;SDS011;25393;46.108;3.390;2022-11-20T07:42:54;9.67;;;2.07;;
36501;SDS011;25393;46.108;3.390;2022-11-20T07:45:24;4.53;;;2.37;;
36501;SDS011;25393;46.108;3.390;2022-11-20T07:47:54;6.33;;;1.77;;
36501;SDS011;25393;46.108;3.390;2022-11-20T07:50:23;4.50;;;1.80;;
36501;SDS011;25393;46.108;3.390;2022-11-20T07:52:52;6.50;;;2.07;;
36501;SDS011;25393;46.108;3.390;2022-11-20T07:55:22;7.23;;;1.60;;
36501;SDS011;25393;46.108;3.390;2022-11-20T07:57:54;6.47;;;2.87;;
36501;SDS011;25393;46.108;3.390;2022-11-20T08:00:27;8.53;;;1.77;;
36501;SDS011;25393;46.108;3.390;2022-11-20T08:02:57;4.47;;;2.03;;
36501;SDS011;25393;46.108;3.390;2022-11-20T08:05:24;7.57;;;2.00;;
36501;SDS011;25393;46.108;3.390;2022-11-20T08:07:51;4.83;;;1.93;;
36501;SDS011;25393;46.108;3.390;2022-11-20T08:10:18;3.42;;;1.77;;
36501;SDS011;25393;46.108;3.390;2022-11-20T08:12:45;5.75;;;2.15;;
36501;SDS011;25393;46.108;3.390;2022-11-20T08:15:32;6.45;;;2.58;;
36501;SDS011;25393;46.108;3.390;2022-11-20T08:18:03;5.80;;;1.92;;
36501;SDS011;25393;46.108;3.390;2022-11-20T08:20:51;4.43;;;1.95;;
36501;SDS011;25393;46.108;3.390;2022-11-20T08:23:19;6.00;;;2.22;;
36501;SDS011;25393;46.108;3.390;2022-11-20T08:25:48;7.85;;;2.70;;
36501;SDS011;25393;46.108;3.390;2022-11-20T08:28:16;6.22;;;1.95;;
36501;SDS011;25393;46.108;3.390;2022-11-20T08:30:47;6.78;;;2.25;;
36501;SDS011;25393;46.108;3.390;2022-11-20T08:33:13;5.03;;;1.80;;
36501;SDS011;25393;46.108;3.390;2022-11-20T08:35:43;5.03;;;1.67;;
36501;SDS011;25393;46.108;3.390;2022-11-20T08:38:13;7.50;;;2.25;;
36501;SDS011;25393;46.108;3.390;2022-11-20T08:40:40;5.00;;;1.88;;
36501;SDS011;25393;46.108;3.390;2022-11-20T08:43:06;10.27;;;2.90;;
36501;SDS011;25393;46.108;3.390;2022-11-20T08:45:33;4.40;;;1.90;;
36501;SDS011;25393;46.108;3.390;2022-11-20T08:48:01;10.80;;;2.03;;
36501;SDS011;25393;46.108;3.390;2022-11-20T08:50:29;5.60;;;1.83;;
36501;SDS011;25393;46.108;3.390;2022-11-20T08:53:02;8.73;;;1.85;;
36501;SDS011;25393;46.108;3.390;2022-11-20T08:55:30;4.75;;;1.75;;
36501;SDS011;25393;46.108;3.390;2022-11-20T08:57:56;4.70;;;1.73;;
36501;SDS011;25393;46.108;3.390;2022-11-20T09:00:23;7.10;;;1.90;;
36501;SDS011;25393;46.108;3.390;2022-11-20T09:02:51;4.80;;;1.67;;
36501;SDS011;25393;46.108;3.390;2022-11-20T09:05:18;7.15;;;2.15;;
36501;SDS011;25393;46.108;3.390;2022-11-20T09:07:45;2.60;;;1.33;;
36501;SDS011;25393;46.108;3.390;2022-11-20T09:10:11;4.30;;;1.50;;
36501;SDS011;25393;46.108;3.390;2022-11-20T09:12:53;5.60;;;1.60;;
36501;SDS011;25393;46.108;3.390;2022-11-20T09:15:22;6.63;;;1.25;;
36501;SDS011;25393;46.108;3.390;2022-11-20T09:17:58;3.53;;;1.42;;
36501;SDS011;25393;46.108;3.390;2022-11-20T09:20:27;5.53;;;1.85;;
36501;SDS011;25393;46.108;3.390;2022-11-20T09:22:58;5.45;;;2.05;;
36501;SDS011;25393;46.108;3.390;2022-11-20T09:25:27;9.02;;;2.10;;
36501;SDS011;25393;46.108;3.390;2022-11-20T09:27:58;3.58;;;1.42;;
36501;SDS011;25393;46.108;3.390;2022-11-20T09:30:26;5.22;;;1.35;;
36501;SDS011;25393;46.108;3.390;2022-11-20T09:32:53;3.65;;;2.10;;
36501;SDS011;25393;46.108;3.390;2022-11-20T09:35:22;8.55;;;1.33;;
36501;SDS011;25393;46.108;3.390;2022-11-20T09:37:48;4.43;;;1.45;;
36501;SDS011;25393;46.108;3.390;2022-11-20T09:40:22;6.53;;;1.58;;
36501;SDS011;25393;46.108;3.390;2022-11-20T09:46:09;4.38;;;1.40;;
36501;SDS011;25393;46.108;3.390;2022-11-20T09:51:41;5.30;;;1.45;;
36501;SDS011;25393;46.108;3.390;2022-11-20T09:54:19;5.90;;;1.58;;
36501;SDS011;25393;46.108;3.390;2022-11-20T09:56:56;8.57;;;1.70;;
36501;SDS011;25393;46.108;3.390;2022-11-20T10:00:00;4.35;;;1.55;;
36501;SDS011;25393;46.108;3.390;2022-11-20T10:04:53;6.80;;;1.65;;
36501;SDS011;25393;46.108;3.390;2022-11-20T10:07:30;4.10;;;1.30;;
36501;SDS011;25393;46.108;3.390;2022-11-20T10:10:13;5.95;;;1.42;;
36501;SDS011;25393;46.108;3.390;2022-11-20T10:18:21;2.50;;;1.58;;
36501;SDS011;25393;46.108;3.390;2022-11-20T10:21:08;5.25;;;1.83;;
36501;SDS011;25393;46.108;3.390;2022-11-20T10:30:12;3.45;;;1.38;;
36501;SDS011;25393;46.108;3.390;2022-11-20T10:32:47;3.88;;;1.20;;
36501;SDS011;25393;46.108;3.390;2022-11-20T10:35:24;4.32;;;1.08;;
36501;SDS011;25393;46.108;3.390;2022-11-20T10:37:58;5.93;;;1.70;;
36501;SDS011;25393;46.108;3.390;2022-11-20T10:42:59;5.40;;;1.38;;
36501;SDS011;25393;46.108;3.390;2022-11-20T10:45:34;4.50;;;1.05;;
36501;SDS011;25393;46.108;3.390;2022-11-20T10:48:10;4.20;;;1.25;;
36501;SDS011;25393;46.108;3.390;2022-11-20T10:59:06;3.67;;;1.42;;
36501;SDS011;25393;46.108;3.390;2022-11-20T11:01:41;4.32;;;1.50;;
36501;SDS011;25393;46.108;3.390;2022-11-20T11:04:15;5.57;;;1.20;;
36501;SDS011;25393;46.108;3.390;2022-11-20T11:07:02;6.68;;;1.20;;
36501;SDS011;25393;46.108;3.390;2022-11-20T11:09:38;2.28;;;1.00;;
36501;SDS011;25393;46.108;3.390;2022-11-20T11:12:09;2.67;;;1.13;;
36501;SDS011;25393;46.108;3.390;2022-11-20T11:14:43;4.03;;;1.60;;
36501;SDS011;25393;46.108;3.390;2022-11-20T11:17:30;6.00;;;1.20;;
36501;SDS011;25393;46.108;3.390;2022-11-20T11:22:59;7.18;;;1.33;;
36501;SDS011;25393;46.108;3.390;2022-11-20T11:27:58;2.10;;;1.05;;
36501;SDS011;25393;46.108;3.390;2022-11-20T11:30:27;3.25;;;1.00;;
36501;SDS011;25393;46.108;3.390;2022-11-20T11:33:08;4.30;;;1.23;;
36501;SDS011;25393;46.108;3.390;2022-11-20T11:35:44;4.43;;;1.38;;
36501;SDS011;25393;46.108;3.390;2022-11-20T11:38:18;4.13;;;0.93;;
36501;SDS011;25393;46.108;3.390;2022-11-20T11:40:49;3.33;;;1.17;;
36501;SDS011;25393;46.108;3.390;2022-11-20T11:43:23;2.03;;;1.05;;
36501;SDS011;25393;46.108;3.390;2022-11-20T11:48:57;3.25;;;1.30;;
36501;SDS011;25393;46.108;3.390;2022-11-20T11:51:45;2.60;;;0.93;;
36501;SDS011;25393;46.108;3.390;2022-11-20T11:54:24;4.82;;;1.30;;
36501;SDS011;25393;46.108;3.390;2022-11-20T11:57:01;3.30;;;0.88;;
36501;SDS011;25393;46.108;3.390;2022-11-20T12:08:10;3.70;;;0.93;;
36501;SDS011;25393;46.108;3.390;2022-11-20T12:16:05;1.58;;;0.70;;
36501;SDS011;25393;46.108;3.390;2022-11-20T12:18:31;2.38;;;0.73;;
36501;SDS011;25393;46.108;3.390;2022-11-20T12:26:35;7.22;;;0.75;;
36501;SDS011;25393;46.108;3.390;2022-11-20T12:42:50;2.25;;;0.88;;
36501;SDS011;25393;46.108;3.390;2022-11-20T12:45:46;2.08;;;1.05;;
36501;SDS011;25393;46.108;3.390;2022-11-20T12:51:38;3.38;;;0.75;;
36501;SDS011;25393;46.108;3.390;2022-11-20T13:01:58;2.65;;;0.75;;
36501;SDS011;25393;46.108;3.390;2022-11-20T13:07:28;2.28;;;0.80;;
36501;SDS011;25393;46.108;3.390;2022-11-20T13:09:56;2.20;;;0.90;;
36501;SDS011;25393;46.108;3.390;2022-11-20T13:12:43;3.28;;;0.70;;
36501;SDS011;25393;46.108;3.390;2022-11-20T13:15:31;1.95;;;0.68;;
36501;SDS011;25393;46.108;3.390;2022-11-20T13:18:15;3.47;;;1.10;;
36501;SDS011;25393;46.108;3.390;2022-11-20T13:20:43;3.60;;;0.60;;
36501;SDS011;25393;46.108;3.390;2022-11-20T13:23:11;1.42;;;0.65;;
36501;SDS011;25393;46.108;3.390;2022-11-20T13:25:38;4.13;;;0.85;;
36501;SDS011;25393;46.108;3.390;2022-11-20T13:30:35;2.17;;;0.70;;
36501;SDS011;25393;46.108;3.390;2022-11-20T13:33:30;4.85;;;1.35;;
36501;SDS011;25393;46.108;3.390;2022-11-20T13:36:00;1.17;;;0.60;;
36501;SDS011;25393;46.108;3.390;2022-11-20T13:38:39;3.22;;;0.50;;
36501;SDS011;25393;46.108;3.390;2022-11-20T13:41:10;3.00;;;0.75;;
36501;SDS011;25393;46.108;3.390;2022-11-20T13:43:58;4.35;;;0.80;;
36501;SDS011;25393;46.108;3.390;2022-11-20T13:46:46;1.92;;;0.75;;
36501;SDS011;25393;46.108;3.390;2022-11-20T13:49:32;5.55;;;0.80;;
36501;SDS011;25393;46.108;3.390;2022-11-20T13:57:33;2.03;;;0.70;;
36501;SDS011;25393;46.108;3.390;2022-11-20T14:03:06;2.75;;;1.08;;
36501;SDS011;25393;46.108;3.390;2022-11-20T14:05:39;3.55;;;0.93;;
36501;SDS011;25393;46.108;3.390;2022-11-20T14:08:17;2.80;;;0.90;;
36501;SDS011;25393;46.108;3.390;2022-11-20T14:16:39;6.95;;;1.10;;
36501;SDS011;25393;46.108;3.390;2022-11-20T14:21:48;6.13;;;2.38;;
36501;SDS011;25393;46.108;3.390;2022-11-20T14:24:20;6.22;;;3.10;;
36501;SDS011;25393;46.108;3.390;2022-11-20T14:26:49;1.92;;;1.33;;
36501;SDS011;25393;46.108;3.390;2022-11-20T14:29:21;5.45;;;1.98;;
36501;SDS011;25393;46.108;3.390;2022-11-20T14:31:53;7.38;;;4.00;;
36501;SDS011;25393;46.108;3.390;2022-11-20T14:34:27;6.63;;;3.83;;
36501;SDS011;25393;46.108;3.390;2022-11-20T14:36:57;6.28;;;3.38;;
36501;SDS011;25393;46.108;3.390;2022-11-20T14:39:33;5.30;;;2.83;;
36501;SDS011;25393;46.108;3.390;2022-11-20T14:42:01;4.82;;;1.55;;
36501;SDS011;25393;46.108;3.390;2022-11-20T14:44:31;16.67;;;8.25;;
36501;SDS011;25393;46.108;3.390;2022-11-20T14:47:00;12.15;;;5.20;;
36501;SDS011;25393;46.108;3.390;2022-11-20T14:49:29;9.70;;;3.97;;
36501;SDS011;25393;46.108;3.390;2022-11-20T14:51:59;14.85;;;6.57;;
36501;SDS011;25393;46.108;3.390;2022-11-20T14:54:29;9.05;;;3.60;;
36501;SDS011;25393;46.108;3.390;2022-11-20T14:56:58;6.35;;;1.10;;
36501;SDS011;25393;46.108;3.390;2022-11-20T14:59:30;3.17;;;1.13;;
36501;SDS011;25393;46.108;3.390;2022-11-20T15:02:00;2.55;;;1.35;;
36501;SDS011;25393;46.108;3.390;2022-11-20T15:04:29;3.55;;;1.20;;
36501;SDS011;25393;46.108;3.390;2022-11-20T15:06:59;5.32;;;1.17;;
36501;SDS011;25393;46.108;3.390;2022-11-20T15:09:28;4.68;;;1.02;;
36501;SDS011;25393;46.108;3.390;2022-11-20T15:12:04;2.88;;;1.52;;
36501;SDS011;25393;46.108;3.390;2022-11-20T15:14:31;6.00;;;2.05;;
36501;SDS011;25393;46.108;3.390;2022-11-20T15:17:01;2.45;;;1.48;;
36501;SDS011;25393;46.108;3.390;2022-11-20T15:19:28;2.10;;;1.05;;
36501;SDS011;25393;46.108;3.390;2022-11-20T15:21:55;7.47;;;1.20;;
36501;SDS011;25393;46.108;3.390;2022-11-20T15:24:24;3.08;;;1.00;;
36501;SDS011;25393;46.108;3.390;2022-11-20T15:26:53;4.35;;;1.25;;
36501;SDS011;25393;46.108;3.390;2022-11-20T15:29:21;2.05;;;1.25;;
36501;SDS011;25393;46.108;3.390;2022-11-20T15:31:49;3.28;;;1.08;;
36501;SDS011;25393;46.108;3.390;2022-11-20T15:34:17;2.63;;;1.13;;
36501;SDS011;25393;46.108;3.390;2022-11-20T15:36:43;2.67;;;1.23;;
36501;SDS011;25393;46.108;3.390;2022-11-20T15:39:10;3.55;;;1.20;;
36501;SDS011;25393;46.108;3.390;2022-11-20T15:41:37;2.55;;;1.23;;
36501;SDS011;25393;46.108;3.390;2022-11-20T15:44:04;8.68;;;3.00;;
36501;SDS011;25393;46.108;3.390;2022-11-20T15:46:31;6.18;;;2.60;;
36501;SDS011;25393;46.108;3.390;2022-11-20T15:49:04;2.90;;;1.58;;
36501;SDS011;25393;46.108;3.390;2022-11-20T15:51:36;1.58;;;1.13;;
36501;SDS011;25393;46.108;3.390;2022-11-20T15:54:11;4.15;;;1.27;;
36501;SDS011;25393;46.108;3.390;2022-11-20T15:56:40;2.67;;;1.05;;
36501;SDS011;25393;46.108;3.390;2022-11-20T15:59:06;2.30;;;0.93;;
36501;SDS011;25393;46.108;3.390;2022-11-20T16:01:33;6.20;;;1.20;;
36501;SDS011;25393;46.108;3.390;2022-11-20T16:04:00;2.10;;;0.80;;
36501;SDS011;25393;46.108;3.390;2022-11-20T16:06:27;1.42;;;0.90;;
36501;SDS011;25393;46.108;3.390;2022-11-20T16:08:54;2.05;;;0.77;;
36501;SDS011;25393;46.108;3.390;2022-11-20T16:11:22;1.65;;;0.80;;
36501;SDS011;25393;46.108;3.390;2022-11-20T16:13:49;8.48;;;1.17;;
36501;SDS011;25393;46.108;3.390;2022-11-20T16:16:36;1.27;;;0.88;;
36501;SDS011;25393;46.108;3.390;2022-11-20T16:19:05;3.47;;;1.17;;
36501;SDS011;25393;46.108;3.390;2022-11-20T16:21:32;2.15;;;0.98;;
36501;SDS011;25393;46.108;3.390;2022-11-20T16:23:59;7.32;;;1.02;;
36501;SDS011;25393;46.108;3.390;2022-11-20T16:26:27;3.47;;;1.08;;
36501;SDS011;25393;46.108;3.390;2022-11-20T16:28:54;3.78;;;1.05;;
36501;SDS011;25393;46.108;3.390;2022-11-20T16:31:22;3.47;;;0.90;;
36501;SDS011;25393;46.108;3.390;2022-11-20T16:33:49;1.65;;;0.90;;
36501;SDS011;25393;46.108;3.390;2022-11-20T16:36:18;0.75;;;0.60;;
36501;SDS011;25393;46.108;3.390;2022-11-20T16:38:46;2.10;;;0.60;;
36501;SDS011;25393;46.108;3.390;2022-11-20T16:41:13;3.22;;;1.10;;
36501;SDS011;25393;46.108;3.390;2022-11-20T16:46:13;1.35;;;0.77;;
36501;SDS011;25393;46.108;3.390;2022-11-20T16:48:40;2.35;;;1.08;;
36501;SDS011;25393;46.108;3.390;2022-11-20T16:51:07;0.82;;;0.70;;
36501;SDS011;25393;46.108;3.390;2022-11-20T16:53:35;0.60;;;0.57;;
36501;SDS011;25393;46.108;3.390;2022-11-20T16:56:12;2.30;;;0.60;;
36501;SDS011;25393;46.108;3.390;2022-11-20T16:58:44;2.00;;;0.80;;
36501;SDS011;25393;46.108;3.390;2022-11-20T17:01:13;1.70;;;0.63;;